sensor_id;sensor_type;location;lat;lon;timestamp;temperature;humidity
75738;DHT22;64356;45.638;13.764;2022-10-30T00:00:18;22.20;75.00
75738;DHT22;64356;45.638;13.764;2022-10-30T00:02:48;22.20;74.90
75738;DHT22;64356;45.638;13.764;2022-10-30T00:05:14;22.20;74.80
75738;DHT22;64356;45.638;13.764;2022-10-30T00:07:40;22.20;74.90
75738;DHT22;64356;45.638;13.764;2022-10-30T00:10:06;22.20;74.90
75738;DHT22;64356;45.638;13.764;2022-10-30T00:12:32;22.20;74.90
75738;DHT22;64356;45.638;13.764;2022-10-30T00:14:58;22.20;74.90
75738;DHT22;64356;45.638;13.764;2022-10-30T00:17:23;22.20;74.80
75738;DHT22;64356;45.638;13.764;2022-10-30T00:19:49;22.20;74.70
75738;DHT22;64356;45.638;13.764;2022-10-30T00:22:15;22.20;74.80
75738;DHT22;64356;45.638;13.764;2022-10-30T00:24:41;22.20;75.30
75738;DHT22;64356;45.638;13.764;2022-10-30T00:27:06;22.20;74.70
75738;DHT22;64356;45.638;13.764;2022-10-30T00:29:32;22.20;74.70
75738;DHT22;64356;45.638;13.764;2022-10-30T00:31:57;22.20;75.20
75738;DHT22;64356;45.638;13.764;2022-10-30T00:34:23;22.20;74.60
75738;DHT22;64356;45.638;13.764;2022-10-30T00:36:49;22.20;74.60
75738;DHT22;64356;45.638;13.764;2022-10-30T00:39:14;22.20;74.70
75738;DHT22;64356;45.638;13.764;2022-10-30T00:41:40;22.20;74.70
75738;DHT22;64356;45.638;13.764;2022-10-30T00:47:31;22.20;74.70
75738;DHT22;64356;45.638;13.764;2022-10-30T00:52:26;22.20;74.70
75738;DHT22;64356;45.638;13.764;2022-10-30T00:54:54;22.20;74.70
75738;DHT22;64356;45.638;13.764;2022-10-30T00:57:22;22.20;74.60
75738;DHT22;64356;45.638;13.764;2022-10-30T00:59:48;22.20;74.50
75738;DHT22;64356;45.638;13.764;2022-10-30T01:02:15;22.20;74.60
75738;DHT22;64356;45.638;13.764;2022-10-30T01:04:41;22.20;74.70
75738;DHT22;64356;45.638;13.764;2022-10-30T01:07:14;22.20;74.60
75738;DHT22;64356;45.638;13.764;2022-10-30T01:09:40;22.20;74.60
75738;DHT22;64356;45.638;13.764;2022-10-30T01:12:06;22.20;74.50
75738;DHT22;64356;45.638;13.764;2022-10-30T01:14:35;22.20;74.50
75738;DHT22;64356;45.638;13.764;2022-10-30T01:17:09;22.20;74.40
75738;DHT22;64356;45.638;13.764;2022-10-30T01:30:59;22.20;74.30
75738;DHT22;64356;45.638;13.764;2022-10-30T01:38:55;22.20;74.00
75738;DHT22;64356;45.638;13.764;2022-10-30T01:41:22;22.20;74.10
75738;DHT22;64356;45.638;13.764;2022-10-30T01:43:52;22.20;74.00
75738;DHT22;64356;45.638;13.764;2022-10-30T01:46:49;22.20;74.00
75738;DHT22;64356;45.638;13.764;2022-10-30T01:49:50;22.20;73.90
75738;DHT22;64356;45.638;13.764;2022-10-30T01:52:32;22.20;74.00
75738;DHT22;64356;45.638;13.764;2022-10-30T02:00:13;22.20;73.90
75738;DHT22;64356;45.638;13.764;2022-10-30T02:02:41;22.20;73.70
75738;DHT22;64356;45.638;13.764;2022-10-30T02:05:08;22.20;73.70
75738;DHT22;64356;45.638;13.764;2022-10-30T02:07:35;22.20;73.60
75738;DHT22;64356;45.638;13.764;2022-10-30T02:10:01;22.20;73.50
75738;DHT22;64356;45.638;13.764;2022-10-30T02:12:27;22.20;73.30
75738;DHT22;64356;45.638;13.764;2022-10-30T02:14:56;22.20;73.40
75738;DHT22;64356;45.638;13.764;2022-10-30T02:17:23;22.20;73.40
75738;DHT22;64356;45.638;13.764;2022-10-30T02:19:50;22.20;73.50
75738;DHT22;64356;45.638;13.764;2022-10-30T02:22:15;22.20;73.60
75738;DHT22;64356;45.638;13.764;2022-10-30T02:24:42;22.20;73.70
75738;DHT22;64356;45.638;13.764;2022-10-30T02:27:08;22.20;73.70
75738;DHT22;64356;45.638;13.764;2022-10-30T02:29:34;22.20;73.60
75738;DHT22;64356;45.638;13.764;2022-10-30T02:32:00;22.10;73.60
75738;DHT22;64356;45.638;13.764;2022-10-30T02:34:26;22.20;73.60
75738;DHT22;64356;45.638;13.764;2022-10-30T02:36:51;22.20;73.60
75738;DHT22;64356;45.638;13.764;2022-10-30T02:39:17;22.20;73.50
75738;DHT22;64356;45.638;13.764;2022-10-30T02:41:45;22.20;73.50
75738;DHT22;64356;45.638;13.764;2022-10-30T02:44:11;22.20;73.50
75738;DHT22;64356;45.638;13.764;2022-10-30T02:46:37;22.10;73.50
75738;DHT22;64356;45.638;13.764;2022-10-30T02:49:02;22.20;73.50
75738;DHT22;64356;45.638;13.764;2022-10-30T02:51:30;22.20;73.50
75738;DHT22;64356;45.638;13.764;2022-10-30T02:53:57;22.20;73.90
75738;DHT22;64356;45.638;13.764;2022-10-30T02:56:23;22.20;73.50
75738;DHT22;64356;45.638;13.764;2022-10-30T02:58:48;22.20;73.50
75738;DHT22;64356;45.638;13.764;2022-10-30T03:01:16;22.10;73.60
75738;DHT22;64356;45.638;13.764;2022-10-30T03:03:43;22.10;73.60
75738;DHT22;64356;45.638;13.764;2022-10-30T03:06:11;22.20;73.60
75738;DHT22;64356;45.638;13.764;2022-10-30T03:08:37;22.20;73.40
75738;DHT22;64356;45.638;13.764;2022-10-30T03:11:07;22.20;73.50
75738;DHT22;64356;45.638;13.764;2022-10-30T03:13:35;22.20;73.40
75738;DHT22;64356;45.638;13.764;2022-10-30T03:16:06;22.20;73.40
75738;DHT22;64356;45.638;13.764;2022-10-30T03:18:33;22.10;73.30
75738;DHT22;64356;45.638;13.764;2022-10-30T03:21:01;22.20;73.30
75738;DHT22;64356;45.638;13.764;2022-10-30T03:23:29;22.20;73.30
75738;DHT22;64356;45.638;13.764;2022-10-30T03:25:56;22.20;73.30
75738;DHT22;64356;45.638;13.764;2022-10-30T03:28:24;22.20;73.20
75738;DHT22;64356;45.638;13.764;2022-10-30T03:30:56;22.20;73.20
75738;DHT22;64356;45.638;13.764;2022-10-30T03:33:22;22.20;73.30
75738;DHT22;64356;45.638;13.764;2022-10-30T03:35:48;22.20;73.30
75738;DHT22;64356;45.638;13.764;2022-10-30T03:38:13;22.20;73.40
75738;DHT22;64356;45.638;13.764;2022-10-30T03:40:39;22.20;73.30
75738;DHT22;64356;45.638;13.764;2022-10-30T03:43:06;22.20;73.10
75738;DHT22;64356;45.638;13.764;2022-10-30T03:45:32;22.20;73.10
75738;DHT22;64356;45.638;13.764;2022-10-30T03:48:02;22.20;73.10
75738;DHT22;64356;45.638;13.764;2022-10-30T03:50:28;22.20;73.10
75738;DHT22;64356;45.638;13.764;2022-10-30T03:52:55;22.20;73.10
75738;DHT22;64356;45.638;13.764;2022-10-30T03:55:21;22.20;73.20
75738;DHT22;64356;45.638;13.764;2022-10-30T03:57:47;22.20;73.20
75738;DHT22;64356;45.638;13.764;2022-10-30T04:00:13;22.20;73.10
75738;DHT22;64356;45.638;13.764;2022-10-30T04:02:47;22.20;73.10
75738;DHT22;64356;45.638;13.764;2022-10-30T04:05:15;22.20;73.20
75738;DHT22;64356;45.638;13.764;2022-10-30T04:07:40;22.20;73.10
75738;DHT22;64356;45.638;13.764;2022-10-30T04:10:06;22.20;73.10
75738;DHT22;64356;45.638;13.764;2022-10-30T04:12:32;22.20;73.30
75738;DHT22;64356;45.638;13.764;2022-10-30T04:14:58;22.20;72.90
75738;DHT22;64356;45.638;13.764;2022-10-30T04:17:23;22.20;72.90
75738;DHT22;64356;45.638;13.764;2022-10-30T04:19:49;22.20;72.70
75738;DHT22;64356;45.638;13.764;2022-10-30T04:22:14;22.20;72.70
75738;DHT22;64356;45.638;13.764;2022-10-30T04:24:40;22.20;72.80
75738;DHT22;64356;45.638;13.764;2022-10-30T04:27:06;22.20;72.90
75738;DHT22;64356;45.638;13.764;2022-10-30T04:29:31;22.20;72.70
75738;DHT22;64356;45.638;13.764;2022-10-30T04:31:57;22.20;72.60
75738;DHT22;64356;45.638;13.764;2022-10-30T04:34:23;22.20;72.20
75738;DHT22;64356;45.638;13.764;2022-10-30T04:36:48;22.20;72.10
75738;DHT22;64356;45.638;13.764;2022-10-30T04:39:14;22.20;72.20
75738;DHT22;64356;45.638;13.764;2022-10-30T04:41:39;22.20;72.40
75738;DHT22;64356;45.638;13.764;2022-10-30T04:44:05;22.20;72.30
75738;DHT22;64356;45.638;13.764;2022-10-30T04:46:31;22.20;72.30
75738;DHT22;64356;45.638;13.764;2022-10-30T04:48:57;22.20;72.70
75738;DHT22;64356;45.638;13.764;2022-10-30T04:51:22;22.20;72.50
75738;DHT22;64356;45.638;13.764;2022-10-30T04:53:48;22.30;72.40
75738;DHT22;64356;45.638;13.764;2022-10-30T04:56:14;22.20;72.30
75738;DHT22;64356;45.638;13.764;2022-10-30T04:58:41;22.20;72.30
75738;DHT22;64356;45.638;13.764;2022-10-30T05:01:07;22.30;72.30
75738;DHT22;64356;45.638;13.764;2022-10-30T05:03:33;22.20;72.40
75738;DHT22;64356;45.638;13.764;2022-10-30T05:06:04;22.20;72.30
75738;DHT22;64356;45.638;13.764;2022-10-30T05:08:31;22.20;72.30
75738;DHT22;64356;45.638;13.764;2022-10-30T05:10:57;22.20;72.30
75738;DHT22;64356;45.638;13.764;2022-10-30T05:13:23;22.20;72.50
75738;DHT22;64356;45.638;13.764;2022-10-30T05:15:49;22.20;72.50
75738;DHT22;64356;45.638;13.764;2022-10-30T05:18:15;22.20;72.50
75738;DHT22;64356;45.638;13.764;2022-10-30T05:20:41;22.20;72.40
75738;DHT22;64356;45.638;13.764;2022-10-30T05:23:07;22.20;72.40
75738;DHT22;64356;45.638;13.764;2022-10-30T05:25:34;22.20;72.60
75738;DHT22;64356;45.638;13.764;2022-10-30T05:28:01;22.20;72.60
75738;DHT22;64356;45.638;13.764;2022-10-30T05:30:28;22.20;72.50
75738;DHT22;64356;45.638;13.764;2022-10-30T05:33:04;22.20;72.40
75738;DHT22;64356;45.638;13.764;2022-10-30T05:35:30;22.20;72.60
75738;DHT22;64356;45.638;13.764;2022-10-30T05:38:00;22.20;72.70
75738;DHT22;64356;45.638;13.764;2022-10-30T05:40:26;22.20;72.70
75738;DHT22;64356;45.638;13.764;2022-10-30T05:42:52;22.20;72.70
75738;DHT22;64356;45.638;13.764;2022-10-30T05:45:17;22.20;72.70
75738;DHT22;64356;45.638;13.764;2022-10-30T05:47:43;22.20;72.70
75738;DHT22;64356;45.638;13.764;2022-10-30T05:50:09;22.10;72.60
75738;DHT22;64356;45.638;13.764;2022-10-30T05:52:36;22.20;72.50
75738;DHT22;64356;45.638;13.764;2022-10-30T05:55:02;22.20;72.50
75738;DHT22;64356;45.638;13.764;2022-10-30T05:57:29;22.20;72.50
75738;DHT22;64356;45.638;13.764;2022-10-30T05:59:55;22.20;72.50
75738;DHT22;64356;45.638;13.764;2022-10-30T06:02:21;22.20;72.50
75738;DHT22;64356;45.638;13.764;2022-10-30T06:04:47;22.20;72.40
75738;DHT22;64356;45.638;13.764;2022-10-30T06:07:12;22.20;72.30
75738;DHT22;64356;45.638;13.764;2022-10-30T06:09:38;22.20;72.30
75738;DHT22;64356;45.638;13.764;2022-10-30T06:12:04;22.20;71.70
75738;DHT22;64356;45.638;13.764;2022-10-30T06:14:29;22.20;71.60
75738;DHT22;64356;45.638;13.764;2022-10-30T06:16:55;22.10;71.30
75738;DHT22;64356;45.638;13.764;2022-10-30T06:19:21;22.10;71.30
75738;DHT22;64356;45.638;13.764;2022-10-30T06:21:46;22.20;71.20
75738;DHT22;64356;45.638;13.764;2022-10-30T06:24:12;22.10;71.20
75738;DHT22;64356;45.638;13.764;2022-10-30T06:26:39;22.20;71.30
75738;DHT22;64356;45.638;13.764;2022-10-30T06:29:04;22.20;71.20
75738;DHT22;64356;45.638;13.764;2022-10-30T06:31:30;22.10;71.30
75738;DHT22;64356;45.638;13.764;2022-10-30T06:33:56;22.20;71.30
75738;DHT22;64356;45.638;13.764;2022-10-30T06:36:21;22.20;71.20
75738;DHT22;64356;45.638;13.764;2022-10-30T06:38:47;22.20;71.00
75738;DHT22;64356;45.638;13.764;2022-10-30T06:41:12;22.20;71.20
75738;DHT22;64356;45.638;13.764;2022-10-30T06:43:38;22.20;71.30
75738;DHT22;64356;45.638;13.764;2022-10-30T06:46:04;22.20;71.10
75738;DHT22;64356;45.638;13.764;2022-10-30T06:48:30;22.20;71.30
75738;DHT22;64356;45.638;13.764;2022-10-30T06:50:58;22.20;71.20
75738;DHT22;64356;45.638;13.764;2022-10-30T06:53:24;22.20;71.20
75738;DHT22;64356;45.638;13.764;2022-10-30T06:55:58;22.20;71.30
75738;DHT22;64356;45.638;13.764;2022-10-30T06:58:24;22.20;71.40
75738;DHT22;64356;45.638;13.764;2022-10-30T07:00:50;22.20;71.40
75738;DHT22;64356;45.638;13.764;2022-10-30T07:03:16;22.20;71.30
75738;DHT22;64356;45.638;13.764;2022-10-30T07:05:41;22.20;71.40
75738;DHT22;64356;45.638;13.764;2022-10-30T07:08:07;22.20;71.40
75738;DHT22;64356;45.638;13.764;2022-10-30T07:10:33;22.20;71.50
75738;DHT22;64356;45.638;13.764;2022-10-30T07:12:58;22.10;71.30
75738;DHT22;64356;45.638;13.764;2022-10-30T07:15:25;22.20;71.40
75738;DHT22;64356;45.638;13.764;2022-10-30T07:17:58;22.20;71.30
75738;DHT22;64356;45.638;13.764;2022-10-30T07:20:26;22.10;71.20
75738;DHT22;64356;45.638;13.764;2022-10-30T07:22:52;22.20;71.20
75738;DHT22;64356;45.638;13.764;2022-10-30T07:25:18;22.20;71.20
75738;DHT22;64356;45.638;13.764;2022-10-30T07:27:48;22.20;71.00
75738;DHT22;64356;45.638;13.764;2022-10-30T07:30:19;22.20;71.50
75738;DHT22;64356;45.638;13.764;2022-10-30T07:32:47;22.10;71.60
75738;DHT22;64356;45.638;13.764;2022-10-30T07:35:20;22.20;71.70
75738;DHT22;64356;45.638;13.764;2022-10-30T07:37:45;22.20;71.70
75738;DHT22;64356;45.638;13.764;2022-10-30T07:40:11;22.20;71.70
75738;DHT22;64356;45.638;13.764;2022-10-30T07:42:37;22.20;71.90
75738;DHT22;64356;45.638;13.764;2022-10-30T07:45:02;22.30;72.40
75738;DHT22;64356;45.638;13.764;2022-10-30T07:47:28;22.40;73.00
75738;DHT22;64356;45.638;13.764;2022-10-30T07:49:54;22.40;73.90
75738;DHT22;64356;45.638;13.764;2022-10-30T07:52:19;22.30;74.40
75738;DHT22;64356;45.638;13.764;2022-10-30T07:54:45;22.30;74.50
75738;DHT22;64356;45.638;13.764;2022-10-30T07:57:11;22.30;74.70
75738;DHT22;64356;45.638;13.764;2022-10-30T07:59:36;22.30;74.90
75738;DHT22;64356;45.638;13.764;2022-10-30T08:02:02;22.30;75.20
75738;DHT22;64356;45.638;13.764;2022-10-30T08:04:27;22.30;75.20
75738;DHT22;64356;45.638;13.764;2022-10-30T08:06:53;22.20;72.80
75738;DHT22;64356;45.638;13.764;2022-10-30T08:09:19;22.20;72.50
75738;DHT22;64356;45.638;13.764;2022-10-30T08:11:44;22.10;72.00
75738;DHT22;64356;45.638;13.764;2022-10-30T08:14:10;22.00;72.50
75738;DHT22;64356;45.638;13.764;2022-10-30T08:16:35;22.00;72.90
75738;DHT22;64356;45.638;13.764;2022-10-30T08:19:01;21.90;73.00
75738;DHT22;64356;45.638;13.764;2022-10-30T08:21:27;21.90;73.60
75738;DHT22;64356;45.638;13.764;2022-10-30T08:23:52;21.90;73.00
75738;DHT22;64356;45.638;13.764;2022-10-30T08:26:18;21.90;73.30
75738;DHT22;64356;45.638;13.764;2022-10-30T08:28:44;21.80;72.80
75738;DHT22;64356;45.638;13.764;2022-10-30T08:31:09;21.90;71.60
75738;DHT22;64356;45.638;13.764;2022-10-30T08:33:35;21.80;70.10
75738;DHT22;64356;45.638;13.764;2022-10-30T08:36:01;21.60;68.60
75738;DHT22;64356;45.638;13.764;2022-10-30T08:38:27;21.20;68.20
75738;DHT22;64356;45.638;13.764;2022-10-30T08:40:54;21.00;67.20
75738;DHT22;64356;45.638;13.764;2022-10-30T08:43:20;20.70;67.20
75738;DHT22;64356;45.638;13.764;2022-10-30T08:45:46;20.50;67.80
75738;DHT22;64356;45.638;13.764;2022-10-30T08:48:14;20.70;69.20
75738;DHT22;64356;45.638;13.764;2022-10-30T08:50:40;20.90;68.20
75738;DHT22;64356;45.638;13.764;2022-10-30T08:53:09;21.10;69.20
75738;DHT22;64356;45.638;13.764;2022-10-30T08:55:34;21.30;68.20
75738;DHT22;64356;45.638;13.764;2022-10-30T08:58:00;21.40;66.90
75738;DHT22;64356;45.638;13.764;2022-10-30T09:00:26;21.50;65.90
75738;DHT22;64356;45.638;13.764;2022-10-30T09:02:52;21.60;66.70
75738;DHT22;64356;45.638;13.764;2022-10-30T09:05:18;21.60;66.40
75738;DHT22;64356;45.638;13.764;2022-10-30T09:07:44;21.60;65.30
75738;DHT22;64356;45.638;13.764;2022-10-30T09:10:10;21.60;63.60
75738;DHT22;64356;45.638;13.764;2022-10-30T09:12:35;21.60;63.40
75738;DHT22;64356;45.638;13.764;2022-10-30T09:15:01;21.50;63.70
75738;DHT22;64356;45.638;13.764;2022-10-30T09:17:27;21.40;65.50
75738;DHT22;64356;45.638;13.764;2022-10-30T09:19:53;21.40;64.40
75738;DHT22;64356;45.638;13.764;2022-10-30T09:22:18;21.30;65.40
75738;DHT22;64356;45.638;13.764;2022-10-30T09:24:44;21.00;63.80
75738;DHT22;64356;45.638;13.764;2022-10-30T09:27:09;20.70;64.80
75738;DHT22;64356;45.638;13.764;2022-10-30T09:29:35;20.50;66.20
75738;DHT22;64356;45.638;13.764;2022-10-30T09:32:01;20.30;67.10
75738;DHT22;64356;45.638;13.764;2022-10-30T09:34:29;20.20;68.20
75738;DHT22;64356;45.638;13.764;2022-10-30T09:36:55;20.40;68.50
75738;DHT22;64356;45.638;13.764;2022-10-30T09:39:21;20.50;68.60
75738;DHT22;64356;45.638;13.764;2022-10-30T09:53:37;20.00;69.80
75738;DHT22;64356;45.638;13.764;2022-10-30T09:56:07;20.00;69.70
75738;DHT22;64356;45.638;13.764;2022-10-30T10:04:20;20.00;71.20
75738;DHT22;64356;45.638;13.764;2022-10-30T10:06:54;19.90;71.80
75738;DHT22;64356;45.638;13.764;2022-10-30T10:09:23;20.00;71.30
75738;DHT22;64356;45.638;13.764;2022-10-30T10:11:57;19.90;71.10
75738;DHT22;64356;45.638;13.764;2022-10-30T10:14:32;20.00;70.40
75738;DHT22;64356;45.638;13.764;2022-10-30T10:17:02;20.00;70.90
75738;DHT22;64356;45.638;13.764;2022-10-30T10:21:59;20.00;70.20
75738;DHT22;64356;45.638;13.764;2022-10-30T10:27:31;20.00;70.80
75738;DHT22;64356;45.638;13.764;2022-10-30T10:30:22;19.90;71.80
75738;DHT22;64356;45.638;13.764;2022-10-30T10:38:11;19.80;76.10
75738;DHT22;64356;45.638;13.764;2022-10-30T10:43:26;20.50;75.60
75738;DHT22;64356;45.638;13.764;2022-10-30T10:51:33;20.70;74.00
75738;DHT22;64356;45.638;13.764;2022-10-30T10:56:42;20.80;74.20
75738;DHT22;64356;45.638;13.764;2022-10-30T10:59:19;20.80;73.80
75738;DHT22;64356;45.638;13.764;2022-10-30T11:06:54;20.90;73.10
75738;DHT22;64356;45.638;13.764;2022-10-30T11:09:22;21.00;73.00
75738;DHT22;64356;45.638;13.764;2022-10-30T11:11:49;21.00;72.40
75738;DHT22;64356;45.638;13.764;2022-10-30T11:14:17;21.00;72.20
75738;DHT22;64356;45.638;13.764;2022-10-30T11:19:15;21.10;71.90
75738;DHT22;64356;45.638;13.764;2022-10-30T11:21:52;21.10;71.90
75738;DHT22;64356;45.638;13.764;2022-10-30T11:24:34;21.10;72.20
75738;DHT22;64356;45.638;13.764;2022-10-30T11:27:24;21.20;72.30
75738;DHT22;64356;45.638;13.764;2022-10-30T11:29:55;21.20;73.00
75738;DHT22;64356;45.638;13.764;2022-10-30T11:32:26;21.30;72.60
75738;DHT22;64356;45.638;13.764;2022-10-30T11:37:34;21.30;73.30
75738;DHT22;64356;45.638;13.764;2022-10-30T11:42:59;21.40;73.90
75738;DHT22;64356;45.638;13.764;2022-10-30T11:45:26;21.40;74.20
75738;DHT22;64356;45.638;13.764;2022-10-30T11:47:55;21.50;75.00
75738;DHT22;64356;45.638;13.764;2022-10-30T11:50:31;21.50;73.60
75738;DHT22;64356;45.638;13.764;2022-10-30T11:53:08;21.60;74.90
75738;DHT22;64356;45.638;13.764;2022-10-30T11:55:55;21.60;74.00
75738;DHT22;64356;45.638;13.764;2022-10-30T11:58:36;21.50;73.20
75738;DHT22;64356;45.638;13.764;2022-10-30T12:03:41;21.50;72.90
75738;DHT22;64356;45.638;13.764;2022-10-30T12:06:08;21.50;73.00
75738;DHT22;64356;45.638;13.764;2022-10-30T12:08:34;21.50;72.40
75738;DHT22;64356;45.638;13.764;2022-10-30T12:11:02;21.50;72.40
75738;DHT22;64356;45.638;13.764;2022-10-30T12:13:39;21.50;72.10
75738;DHT22;64356;45.638;13.764;2022-10-30T12:16:08;21.50;72.50
75738;DHT22;64356;45.638;13.764;2022-10-30T12:18:38;21.50;72.40
75738;DHT22;64356;45.638;13.764;2022-10-30T12:21:04;21.40;71.50
75738;DHT22;64356;45.638;13.764;2022-10-30T12:23:30;21.40;72.00
75738;DHT22;64356;45.638;13.764;2022-10-30T12:26:06;21.40;72.20
75738;DHT22;64356;45.638;13.764;2022-10-30T12:28:33;21.40;72.70
75738;DHT22;64356;45.638;13.764;2022-10-30T12:31:04;21.40;73.40
75738;DHT22;64356;45.638;13.764;2022-10-30T12:33:36;21.50;73.20
75738;DHT22;64356;45.638;13.764;2022-10-30T12:36:13;21.50;73.70
75738;DHT22;64356;45.638;13.764;2022-10-30T12:38:54;21.60;74.30
75738;DHT22;64356;45.638;13.764;2022-10-30T12:41:42;21.60;73.80
75738;DHT22;64356;45.638;13.764;2022-10-30T12:44:18;21.60;73.60
75738;DHT22;64356;45.638;13.764;2022-10-30T12:46:50;21.60;73.30
75738;DHT22;64356;45.638;13.764;2022-10-30T13:01:15;21.60;72.60
75738;DHT22;64356;45.638;13.764;2022-10-30T13:03:52;21.60;72.10
75738;DHT22;64356;45.638;13.764;2022-10-30T13:06:38;21.70;72.40
75738;DHT22;64356;45.638;13.764;2022-10-30T13:12:05;21.70;71.70
75738;DHT22;64356;45.638;13.764;2022-10-30T13:15:32;21.70;70.90
75738;DHT22;64356;45.638;13.764;2022-10-30T13:17:30;21.60;70.60
75738;DHT22;64356;45.638;13.764;2022-10-30T13:19:56;21.60;70.90
75738;DHT22;64356;45.638;13.764;2022-10-30T13:22:29;21.70;70.90
75738;DHT22;64356;45.638;13.764;2022-10-30T13:30:23;21.60;70.60
75738;DHT22;64356;45.638;13.764;2022-10-30T13:35:42;21.70;70.90
75738;DHT22;64356;45.638;13.764;2022-10-30T13:38:23;21.70;70.50
75738;DHT22;64356;45.638;13.764;2022-10-30T13:41:52;21.80;70.30
75738;DHT22;64356;45.638;13.764;2022-10-30T13:49:35;21.80;70.20
75738;DHT22;64356;45.638;13.764;2022-10-30T13:52:15;21.80;70.60
75738;DHT22;64356;45.638;13.764;2022-10-30T13:57:51;21.80;70.20
75738;DHT22;64356;45.638;13.764;2022-10-30T14:01:07;21.90;69.90
75738;DHT22;64356;45.638;13.764;2022-10-30T14:05:57;21.80;69.90
75738;DHT22;64356;45.638;13.764;2022-10-30T14:11:20;21.80;70.10
75738;DHT22;64356;45.638;13.764;2022-10-30T14:13:54;21.90;70.30
75738;DHT22;64356;45.638;13.764;2022-10-30T14:16:32;21.80;70.00
75738;DHT22;64356;45.638;13.764;2022-10-30T14:19:05;21.90;69.90
75738;DHT22;64356;45.638;13.764;2022-10-30T14:26:49;21.90;70.10
75738;DHT22;64356;45.638;13.764;2022-10-30T14:31:59;22.00;70.10
75738;DHT22;64356;45.638;13.764;2022-10-30T14:37:15;21.90;70.00
75738;DHT22;64356;45.638;13.764;2022-10-30T14:39:44;21.90;70.40
75738;DHT22;64356;45.638;13.764;2022-10-30T14:45:13;21.90;70.40
75738;DHT22;64356;45.638;13.764;2022-10-30T14:55:45;22.00;70.50
75738;DHT22;64356;45.638;13.764;2022-10-30T14:58:25;21.90;70.50
75738;DHT22;64356;45.638;13.764;2022-10-30T15:01:24;21.90;70.50
75738;DHT22;64356;45.638;13.764;2022-10-30T15:04:55;21.90;70.50
75738;DHT22;64356;45.638;13.764;2022-10-30T15:07:41;22.00;70.60
75738;DHT22;64356;45.638;13.764;2022-10-30T15:15:21;22.00;70.80
75738;DHT22;64356;45.638;13.764;2022-10-30T15:17:49;22.00;70.90
75738;DHT22;64356;45.638;13.764;2022-10-30T15:20:30;22.00;71.00
75738;DHT22;64356;45.638;13.764;2022-10-30T15:23:00;22.00;70.90
75738;DHT22;64356;45.638;13.764;2022-10-30T15:25:34;21.90;71.00
75738;DHT22;64356;45.638;13.764;2022-10-30T15:28:00;22.00;71.10
75738;DHT22;64356;45.638;13.764;2022-10-30T15:30:26;22.00;71.10
75738;DHT22;64356;45.638;13.764;2022-10-30T15:32:52;22.00;71.20
75738;DHT22;64356;45.638;13.764;2022-10-30T15:35:25;22.00;71.20
75738;DHT22;64356;45.638;13.764;2022-10-30T15:38:08;22.00;71.20
75738;DHT22;64356;45.638;13.764;2022-10-30T15:40:35;22.00;71.30
75738;DHT22;64356;45.638;13.764;2022-10-30T15:43:03;22.00;71.30
75738;DHT22;64356;45.638;13.764;2022-10-30T15:45:39;22.00;71.20
75738;DHT22;64356;45.638;13.764;2022-10-30T15:48:24;22.00;71.30
75738;DHT22;64356;45.638;13.764;2022-10-30T15:51:01;22.00;71.30
75738;DHT22;64356;45.638;13.764;2022-10-30T15:58:43;22.00;71.50
75738;DHT22;64356;45.638;13.764;2022-10-30T16:01:32;22.10;71.60
75738;DHT22;64356;45.638;13.764;2022-10-30T16:03:59;22.10;71.60
75738;DHT22;64356;45.638;13.764;2022-10-30T16:06:30;22.10;71.60
75738;DHT22;64356;45.638;13.764;2022-10-30T16:08:56;22.10;71.50
75738;DHT22;64356;45.638;13.764;2022-10-30T16:11:23;22.10;71.50
75738;DHT22;64356;45.638;13.764;2022-10-30T16:13:50;22.20;71.70
75738;DHT22;64356;45.638;13.764;2022-10-30T16:16:25;22.20;71.90
75738;DHT22;64356;45.638;13.764;2022-10-30T16:18:53;22.20;72.00
75738;DHT22;64356;45.638;13.764;2022-10-30T16:21:22;22.20;72.40
75738;DHT22;64356;45.638;13.764;2022-10-30T16:23:52;22.20;72.30
75738;DHT22;64356;45.638;13.764;2022-10-30T16:26:37;22.20;72.50
75738;DHT22;64356;45.638;13.764;2022-10-30T16:31:37;22.20;72.40
75738;DHT22;64356;45.638;13.764;2022-10-30T16:34:09;22.20;72.50
75738;DHT22;64356;45.638;13.764;2022-10-30T16:36:36;22.20;72.60
75738;DHT22;64356;45.638;13.764;2022-10-30T16:39:03;22.20;72.50
75738;DHT22;64356;45.638;13.764;2022-10-30T16:41:30;22.20;72.60
75738;DHT22;64356;45.638;13.764;2022-10-30T16:44:24;22.20;72.60
75738;DHT22;64356;45.638;13.764;2022-10-30T16:49:29;22.30;72.10
75738;DHT22;64356;45.638;13.764;2022-10-30T16:51:59;22.30;71.90
75738;DHT22;64356;45.638;13.764;2022-10-30T16:54:30;22.30;71.90
75738;DHT22;64356;45.638;13.764;2022-10-30T16:56:57;22.30;71.70
75738;DHT22;64356;45.638;13.764;2022-10-30T16:59:45;22.30;71.60
75738;DHT22;64356;45.638;13.764;2022-10-30T17:02:18;22.30;71.50
75738;DHT22;64356;45.638;13.764;2022-10-30T17:04:46;22.30;71.50
75738;DHT22;64356;45.638;13.764;2022-10-30T17:07:19;22.30;71.60
75738;DHT22;64356;45.638;13.764;2022-10-30T17:09:50;22.30;71.60
75738;DHT22;64356;45.638;13.764;2022-10-30T17:14:48;22.20;71.70
75738;DHT22;64356;45.638;13.764;2022-10-30T17:22:26;22.20;71.80
75738;DHT22;64356;45.638;13.764;2022-10-30T17:24:52;22.20;71.80
75738;DHT22;64356;45.638;13.764;2022-10-30T17:27:41;22.30;71.80
75738;DHT22;64356;45.638;13.764;2022-10-30T17:30:27;22.30;71.90
75738;DHT22;64356;45.638;13.764;2022-10-30T17:32:53;22.30;71.80
75738;DHT22;64356;45.638;13.764;2022-10-30T17:35:19;22.40;71.90
75738;DHT22;64356;45.638;13.764;2022-10-30T17:37:45;22.40;71.90
75738;DHT22;64356;45.638;13.764;2022-10-30T17:40:11;22.40;71.90
75738;DHT22;64356;45.638;13.764;2022-10-30T17:42:38;22.40;71.90
75738;DHT22;64356;45.638;13.764;2022-10-30T17:45:05;22.40;71.90
75738;DHT22;64356;45.638;13.764;2022-10-30T17:47:34;22.40;71.90
75738;DHT22;64356;45.638;13.764;2022-10-30T17:50:00;22.40;71.90
75738;DHT22;64356;45.638;13.764;2022-10-30T17:52:28;22.40;71.90
75738;DHT22;64356;45.638;13.764;2022-10-30T17:54:53;22.40;71.90
75738;DHT22;64356;45.638;13.764;2022-10-30T17:57:19;22.40;72.00
75738;DHT22;64356;45.638;13.764;2022-10-30T17:59:47;22.40;71.90
75738;DHT22;64356;45.638;13.764;2022-10-30T18:02:15;22.50;72.00
75738;DHT22;64356;45.638;13.764;2022-10-30T18:04:41;22.50;72.10
75738;DHT22;64356;45.638;13.764;2022-10-30T18:07:09;22.50;72.00
75738;DHT22;64356;45.638;13.764;2022-10-30T18:09:34;22.50;72.00
75738;DHT22;64356;45.638;13.764;2022-10-30T18:12:00;22.50;72.20